Time;durP1;ratioP1;P1;durP2;ratioP2;P2;SDS_P1;SDS_P2;PMS_P1;PMS_P2;Temp;Humidity;BMP_temperature;BMP_pressure;BME280_temperature;BME280_humidity;BME280_pressure;Samples;Min_cycle;Max_cycle;Signal;HPM_P1;HPM_P2
2021/12/07 00:01:19;;;;;;;21.95;11.90;;;;;;;0.75;95.56;100105.22;4885823;29;20057;-85
2021/12/07 00:03:46;;;;;;;23.42;12.25;;;;;;;0.72;96.03;100112.91;4885283;29;20052;-84
2021/12/07 00:06:13;;;;;;;22.95;12.30;;;;;;;0.69;95.84;100101.66;4886734;29;20056;-85
2021/12/07 00:08:41;;;;;;;24.08;13.13;;;;;;;0.67;96.04;100093.03;4885394;29;20399;-85
2021/12/07 00:11:09;;;;;;;20.58;11.55;;;;;;;0.62;96.33;100088.63;4872455;29;20060;-86
2021/12/07 00:13:39;;;;;;;23.60;11.68;;;;;;;0.59;96.43;100096.28;4884605;29;20060;-83
2021/12/07 00:16:10;;;;;;;22.33;10.90;;;;;;;0.56;96.03;100080.78;4877063;29;20052;-84
2021/12/07 00:18:39;;;;;;;22.08;12.38;;;;;;;0.52;96.91;100083.25;4884786;29;20092;-85
2021/12/07 00:21:09;;;;;;;23.67;12.27;;;;;;;0.49;96.85;100072.03;4881376;29;20048;-84
2021/12/07 00:23:37;;;;;;;22.50;11.45;;;;;;;0.46;96.70;100064.25;4869396;29;20117;-84
2021/12/07 00:26:06;;;;;;;22.90;12.93;;;;;;;0.44;96.89;100062.47;4885908;29;20056;-84
2021/12/07 00:28:33;;;;;;;21.17;11.73;;;;;;;0.43;97.46;100060.72;4876836;29;20047;-84
2021/12/07 00:31:09;;;;;;;23.17;10.93;;;;;;;0.40;97.52;100058.09;4866632;29;20514;-85
2021/12/07 00:33:44;;;;;;;23.17;12.60;;;;;;;0.39;97.22;100053.78;4878602;29;20057;-82
2021/12/07 00:36:11;;;;;;;20.23;11.65;;;;;;;0.37;97.57;100048.59;4867226;29;20058;-82
2021/12/07 00:38:39;;;;;;;23.77;12.45;;;;;;;0.36;97.83;100049.41;4879407;29;20049;-87
2021/12/07 00:41:06;;;;;;;20.00;11.75;;;;;;;0.37;97.56;100050.31;4877207;29;20135;-82
2021/12/07 00:43:33;;;;;;;22.23;11.75;;;;;;;0.37;97.56;100051.16;4882113;29;20041;-81
2021/12/07 00:46:01;;;;;;;19.15;10.82;;;;;;;0.36;97.02;100046.00;4870820;29;20049;-85
2021/12/07 00:48:29;;;;;;;22.23;11.45;;;;;;;0.36;96.90;100046.84;4876910;29;20052;-83
2021/12/07 00:50:57;;;;;;;20.15;11.20;;;;;;;0.36;97.12;100040.84;4864620;29;20056;-84
2021/12/07 00:53:28;;;;;;;16.52;9.80;;;;;;;0.37;96.70;100040.00;4873208;29;20052;-83
2021/12/07 00:55:59;;;;;;;20.23;10.68;;;;;;;0.37;96.40;100037.44;4877449;29;20089;-82
2021/12/07 00:58:28;;;;;;;18.13;10.30;;;;;;;0.36;97.12;100044.28;4873915;29;20056;-82
2021/12/07 01:01:00;;;;;;;20.38;11.80;;;;;;;0.35;96.73;100044.25;4877725;29;20127;-86
2021/12/07 01:03:29;;;;;;;17.85;10.98;;;;;;;0.35;96.60;100036.50;4892673;29;20066;-86
2021/12/07 01:06:06;;;;;;;18.15;10.15;;;;;;;0.32;96.48;100034.75;4859453;29;20143;-86
2021/12/07 01:25:21;;;;;;;20.83;10.50;;;;;;;0.26;96.46;100034.59;4876283;29;20048;-83
2021/12/07 01:27:50;;;;;;;17.90;9.30;;;;;;;0.22;96.29;100031.09;4876990;29;20049;-82
2021/12/07 01:30:21;;;;;;;16.75;8.77;;;;;;;0.19;96.28;100030.16;4877566;29;20053;-85
2021/12/07 01:33:05;;;;;;;14.32;8.40;;;;;;;0.16;96.99;100028.38;4880188;29;20424;-82
2021/12/07 01:38:29;;;;;;;17.73;9.68;;;;;;;0.12;96.89;100042.00;4864084;29;20051;-86
2021/12/07 01:41:06;;;;;;;16.30;9.65;;;;;;;0.09;97.20;100032.53;4869139;29;20055;-82
2021/12/07 01:43:56;;;;;;;20.75;10.77;;;;;;;0.13;97.25;100023.13;4882433;29;20052;-83
2021/12/07 02:00:15;;;;;;;17.08;8.30;;;;;;;0.24;95.74;100020.84;4881219;29;20040;-83
2021/12/07 02:02:42;;;;;;;23.33;11.93;;;;;;;0.23;95.92;100021.66;4888091;29;20422;-82
2021/12/07 02:05:10;;;;;;;17.60;10.45;;;;;;;0.22;96.18;100020.81;4881343;29;20163;-83
2021/12/07 02:07:37;;;;;;;16.02;10.02;;;;;;;0.23;96.49;100025.09;4875635;29;20064;-82
2021/12/07 02:10:11;;;;;;;18.30;10.85;;;;;;;0.25;96.56;100020.88;4864994;29;20139;-83
2021/12/07 02:12:43;;;;;;;;;;;;;;;0.28;96.62;100022.63;4880932;29;20060;-83
2021/12/07 02:15:15;;;;;;;22.67;11.13;;;;;;;0.30;96.41;100020.94;4861143;29;19934;-82
2021/12/07 02:17:42;;;;;;;19.63;10.75;;;;;;;0.32;96.40;100015.00;4874427;29;20060;-84
2021/12/07 02:20:11;;;;;;;19.75;10.57;;;;;;;0.37;95.64;100022.00;4892758;29;20432;-82
2021/12/07 02:22:38;;;;;;;22.15;11.75;;;;;;;0.39;96.09;100017.72;4874565;29;20059;-83
2021/12/07 02:25:08;;;;;;;19.60;9.73;;;;;;;0.44;95.83;100021.28;4865387;29;20049;-84
2021/12/07 02:27:36;;;;;;;21.15;9.77;;;;;;;0.44;95.40;100021.28;4858822;29;20135;-83
2021/12/07 02:30:08;;;;;;;19.80;11.02;;;;;;;0.46;95.57;100022.19;4892440;29;20051;-82
2021/12/07 02:32:35;;;;;;;15.57;9.80;;;;;;;0.48;95.26;100025.66;4862943;29;20076;-82
2021/12/07 02:35:02;;;;;;;19.25;10.15;;;;;;;0.48;95.48;100028.22;4894741;29;20049;-82
2021/12/07 02:37:35;;;;;;;17.70;9.60;;;;;;;0.50;95.04;100029.13;4860270;29;21701;-84
2021/12/07 02:40:05;;;;;;;16.70;10.45;;;;;;;0.52;95.91;100030.03;4877469;29;20152;-81
2021/12/07 02:42:32;;;;;;;20.13;9.98;;;;;;;0.56;95.45;100025.81;4875110;29;20185;-83
2021/12/07 02:44:59;;;;;;;17.20;9.50;;;;;;;0.57;95.66;100023.25;4893256;29;20044;-84
2021/12/07 02:47:26;;;;;;;19.75;10.07;;;;;;;0.62;95.46;100015.66;4882263;29;20063;-84
2021/12/07 02:49:52;;;;;;;19.73;10.98;;;;;;;0.65;95.26;100014.00;4881251;29;20060;-85
2021/12/07 02:52:19;;;;;;;22.20;12.52;;;;;;;0.71;94.64;100025.28;4868327;29;20658;-82
2021/12/07 02:54:49;;;;;;;18.48;10.45;;;;;;;0.74;94.88;100031.34;4866811;29;20056;-83
2021/12/07 02:57:19;;;;;;;23.80;11.07;;;;;;;0.79;94.66;100032.31;4872069;29;20401;-85
2021/12/07 02:59:56;;;;;;;19.35;11.63;;;;;;;0.82;94.79;100034.09;4892303;29;20783;-82
2021/12/07 03:02:23;;;;;;;19.45;11.48;;;;;;;0.85;94.75;100035.84;4862342;29;20052;-82
2021/12/07 03:04:59;;;;;;;24.27;12.20;;;;;;;0.87;94.52;100036.78;4881298;29;20052;-86
2021/12/07 03:07:41;;;;;;;25.95;12.15;;;;;;;0.87;94.21;100032.47;4879843;29;20428;-83
2021/12/07 03:26:31;;;;;;;15.52;9.13;;;;;;;1.02;94.87;100031.94;4891164;29;20127;-84
2021/12/07 03:28:59;;;;;;;20.02;9.98;;;;;;;1.07;94.87;100035.47;4864667;29;20068;-83
2021/12/07 03:31:29;;;;;;;17.52;9.95;;;;;;;1.11;94.71;100045.00;4879156;29;20053;-83
2021/12/07 03:33:58;;;;;;;26.55;14.23;;;;;;;1.12;94.96;100041.59;4862830;29;20409;-86
2021/12/07 03:36:27;;;;;;;19.52;11.60;;;;;;;1.12;95.40;100040.69;4879312;29;20090;-85
2021/12/07 03:38:54;;;;;;;20.42;11.80;;;;;;;1.08;96.00;100050.09;4877601;29;20049;-86
2021/12/07 03:41:21;;;;;;;23.52;11.88;;;;;;;1.05;96.59;100059.47;4879728;29;20607;-84
2021/12/07 03:43:49;;;;;;;19.50;10.07;;;;;;;1.01;96.75;100057.69;4865887;29;20055;-82
2021/12/07 03:46:16;;;;;;;18.88;10.27;;;;;;;0.96;97.15;100053.28;4865109;29;20052;-85
2021/12/07 03:48:43;;;;;;;19.30;11.02;;;;;;;0.94;97.71;100062.69;4878849;29;20575;-85
2021/12/07 03:51:11;;;;;;;22.38;11.98;;;;;;;0.91;98.09;100061.75;4892509;29;20049;-84
2021/12/07 03:53:41;;;;;;;19.70;10.68;;;;;;;0.87;98.53;100055.66;4876884;29;20052;-87
2021/12/07 03:56:09;;;;;;;22.45;11.57;;;;;;;0.82;98.77;100050.44;4860400;29;20088;-82
2021/12/07 03:58:37;;;;;;;16.98;9.32;;;;;;;0.80;99.34;100054.66;4872220;29;20059;-82
2021/12/07 04:01:07;;;;;;;16.92;10.40;;;;;;;0.77;99.87;100051.16;4877363;29;20407;-82
2021/12/07 04:03:36;;;;;;;22.17;11.07;;;;;;;0.71;100.00;100051.03;4878231;29;20060;-82
2021/12/07 04:06:06;;;;;;;20.20;12.35;;;;;;;0.63;100.00;100054.31;4886202;29;20209;-84
2021/12/07 04:08:37;;;;;;;21.30;11.63;;;;;;;0.60;100.00;100053.38;4889796;29;20115;-82
2021/12/07 04:11:04;;;;;;;22.42;12.00;;;;;;;0.56;100.00;100060.19;4888354;29;20060;-82
2021/12/07 04:13:31;;;;;;;21.58;11.30;;;;;;;0.53;100.00;100065.25;4862309;29;20858;-82
2021/12/07 04:15:58;;;;;;;22.83;11.40;;;;;;;0.52;100.00;100066.06;4875321;29;20056;-86
2021/12/07 04:18:27;;;;;;;25.48;10.52;;;;;;;0.53;100.00;100066.97;4877296;29;20247;-85
2021/12/07 04:20:54;;;;;;;20.27;10.82;;;;;;;0.54;100.00;100069.56;4864456;29;20135;-86
2021/12/07 04:23:21;;;;;;;20.73;11.68;;;;;;;0.52;100.00;100073.81;4859696;29;20044;-84
2021/12/07 04:25:48;;;;;;;20.15;10.60;;;;;;;0.47;100.00;100068.56;4876470;29;20163;-83
2021/12/07 04:28:15;;;;;;;23.90;12.68;;;;;;;0.45;100.00;100069.38;4881811;29;20860;-82
2021/12/07 04:30:43;;;;;;;22.25;13.10;;;;;;;0.43;100.00;100071.03;4869593;29;20148;-85
2021/12/07 04:33:12;;;;;;;23.15;11.50;;;;;;;0.42;100.00;100070.16;4865485;29;20147;-82
2021/12/07 04:35:43;;;;;;;23.17;11.90;;;;;;;0.43;100.00;100066.75;4877260;29;20676;-81
2021/12/07 04:38:10;;;;;;;26.35;12.45;;;;;;;0.46;100.00;100068.53;4879966;29;20055;-83
2021/12/07 04:40:37;;;;;;;29.48;14.02;;;;;;;0.47;100.00;100067.69;4872128;29;20729;-83
2021/12/07 04:43:06;;;;;;;26.10;11.52;;;;;;;0.47;100.00;100067.69;4863251;29;20139;-82
2021/12/07 04:45:45;;;;;;;20.88;11.07;;;;;;;0.44;100.00;100060.78;4895305;29;20048;-82
2021/12/07 04:48:36;;;;;;;23.15;12.18;;;;;;;0.43;100.00;100066.75;4849392;29;20064;-83
2021/12/07 04:59:14;;;;;;;22.55;12.73;;;;;;;0.46;100.00;100071.13;4875443;29;20067;-83
2021/12/07 05:01:41;;;;;;;23.92;13.95;;;;;;;0.47;100.00;100075.41;4876399;29;20040;-83
2021/12/07 05:04:12;;;;;;;20.38;12.55;;;;;;;0.49;100.00;100069.44;4882129;29;20053;-83
2021/12/07 05:06:44;;;;;;;21.95;12.82;;;;;;;0.54;100.00;100068.72;4862691;29;20049;-85
2021/12/07 05:09:29;;;;;;;21.90;13.13;;;;;;;0.55;100.00;100070.44;4879728;29;20044;-82
2021/12/07 05:12:18;;;;;;;24.48;12.27;;;;;;;0.56;100.00;100074.75;4883758;29;20136;-87
2021/12/07 05:14:46;;;;;;;20.00;12.20;;;;;;;0.58;100.00;100076.53;4892708;29;20061;-83
2021/12/07 05:17:22;;;;;;;24.90;13.05;;;;;;;0.61;100.00;100075.72;4891031;29;20152;-84
2021/12/07 05:25:37;;;;;;;25.52;11.95;;;;;;;0.72;100.00;100092.28;4869158;29;20048;-83
2021/12/07 05:39:01;;;;;;;19.83;11.98;;;;;;;0.93;100.00;100083.28;4878592;29;20416;-85
2021/12/07 05:41:27;;;;;;;21.92;11.82;;;;;;;0.96;100.00;100081.63;4894219;29;20420;-84
2021/12/07 05:43:56;;;;;;;22.02;11.00;;;;;;;1.00;100.00;100092.88;4866410;29;20320;-84
2021/12/07 05:46:23;;;;;;;18.42;11.15;;;;;;;1.03;100.00;100092.94;4890274;29;20056;-84
2021/12/07 05:48:53;;;;;;;20.40;11.05;;;;;;;1.06;100.00;100094.72;4878063;29;20128;-84
2021/12/07 05:51:19;;;;;;;18.35;11.88;;;;;;;1.08;100.00;100103.34;4882156;29;20523;-84
2021/12/07 05:53:46;;;;;;;20.25;11.27;;;;;;;1.11;100.00;100111.16;4879927;29;20088;-82
2021/12/07 05:56:13;;;;;;;17.77;10.20;;;;;;;1.15;100.00;100112.97;4878812;29;20075;-82
2021/12/07 05:58:42;;;;;;;17.27;10.27;;;;;;;1.19;100.00;100119.03;4854010;29;20085;-83
2021/12/07 06:01:09;;;;;;;18.35;10.05;;;;;;;1.20;100.00;100119.06;4894981;29;20049;-83
2021/12/07 06:03:35;;;;;;;18.67;11.75;;;;;;;1.20;100.00;100123.34;4879911;29;20173;-83
2021/12/07 06:06:03;;;;;;;19.30;11.02;;;;;;;1.21;100.00;100120.78;4893777;29;20076;-83
2021/12/07 06:08:31;;;;;;;24.13;11.65;;;;;;;1.22;100.00;100124.25;4882653;29;20139;-82
2021/12/07 06:10:58;;;;;;;15.63;9.80;;;;;;;1.23;100.00;100126.88;4878627;29;20059;-86
2021/12/07 06:13:25;;;;;;;20.40;10.20;;;;;;;1.24;100.00;100131.19;4899010;29;20068;-86
2021/12/07 06:15:52;;;;;;;19.35;10.77;;;;;;;1.27;100.00;100136.41;4881057;29;20052;-84
2021/12/07 06:18:20;;;;;;;15.57;10.10;;;;;;;1.26;100.00;100134.66;4882453;29;20618;-83
2021/12/07 06:20:47;;;;;;;20.10;11.32;;;;;;;1.29;100.00;100147.63;4896115;29;20052;-84
2021/12/07 06:23:18;;;;;;;17.10;10.13;;;;;;;1.31;100.00;100151.09;4879264;29;20408;-82
2021/12/07 06:25:48;;;;;;;20.13;11.27;;;;;;;1.33;100.00;100146.00;4880811;29;20666;-83
2021/12/07 06:28:15;;;;;;;20.08;12.00;;;;;;;1.37;100.00;100155.53;4863599;29;20412;-82
2021/12/07 06:30:45;;;;;;;19.50;12.10;;;;;;;1.42;100.00;100153.03;4868359;29;20053;-84
2021/12/07 06:33:18;;;;;;;17.73;10.50;;;;;;;1.43;100.00;100157.34;4885958;29;20057;-84
2021/12/07 06:35:47;;;;;;;18.90;11.35;;;;;;;1.43;100.00;100162.50;4862766;29;20564;-82
2021/12/07 06:38:17;;;;;;;22.25;11.55;;;;;;;1.43;100.00;100155.63;4867656;29;20045;-85
2021/12/07 06:40:45;;;;;;;16.92;11.18;;;;;;;1.43;100.00;100154.75;4872558;29;20055;-86
2021/12/07 06:43:12;;;;;;;18.40;10.80;;;;;;;1.42;100.00;100163.34;4882675;29;20052;-83
2021/12/07 06:45:38;;;;;;;20.13;12.48;;;;;;;1.43;100.00;100165.09;4866447;29;20055;-87
2021/12/07 06:48:06;;;;;;;18.58;11.82;;;;;;;1.44;100.00;100166.84;4869556;29;20055;-84
2021/12/07 06:50:33;;;;;;;19.38;12.55;;;;;;;1.43;100.00;100171.09;4871297;29;20167;-82
2021/12/07 06:52:59;;;;;;;19.92;12.60;;;;;;;1.42;100.00;100168.50;4881996;29;20958;-82
2021/12/07 06:55:26;;;;;;;21.85;12.45;;;;;;;1.41;100.00;100166.75;4878517;29;20052;-84
2021/12/07 06:57:52;;;;;;;23.25;11.35;;;;;;;1.39;100.00;100169.31;4874851;29;23619;-86
2021/12/07 07:00:20;;;;;;;22.42;12.43;;;;;;;1.44;100.00;100177.16;4878708;29;20048;-82
2021/12/07 07:02:47;;;;;;;19.60;10.88;;;;;;;1.45;100.00;100184.06;4876500;29;20060;-85
2021/12/07 07:05:15;;;;;;;22.17;12.25;;;;;;;1.46;100.00;100186.66;4883092;29;20514;-82
2021/12/07 07:07:43;;;;;;;18.35;11.88;;;;;;;1.47;100.00;100190.09;4882688;29;20059;-83
2021/12/07 07:10:14;;;;;;;24.02;12.48;;;;;;;1.50;100.00;100203.06;4881881;29;20044;-84
2021/12/07 07:12:41;;;;;;;22.55;11.98;;;;;;;1.53;100.00;100199.69;4891359;29;20052;-84
2021/12/07 07:15:11;;;;;;;19.67;12.50;;;;;;;1.55;100.00;100198.00;4880830;29;20052;-82
2021/12/07 07:17:38;;;;;;;20.83;12.32;;;;;;;1.57;100.00;100201.50;4878705;29;20053;-82
2021/12/07 07:20:09;;;;;;;23.38;12.30;;;;;;;1.58;100.00;100203.22;4875085;29;20136;-85
2021/12/07 07:22:36;;;;;;;22.13;13.05;;;;;;;1.55;100.00;100206.63;4891799;29;20080;-85
2021/12/07 07:25:05;;;;;;;20.80;11.32;;;;;;;1.54;100.00;100201.41;4894302;29;20056;-82
2021/12/07 07:27:34;;;;;;;21.75;12.55;;;;;;;1.55;100.00;100214.34;4891942;29;20107;-82
2021/12/07 07:30:01;;;;;;;19.33;10.77;;;;;;;1.53;100.00;100213.44;4895472;29;20048;-82
2021/12/07 07:32:27;;;;;;;16.90;11.68;;;;;;;1.54;100.00;100230.66;4886525;29;20041;-86
2021/12/07 07:34:54;;;;;;;18.55;10.82;;;;;;;1.54;100.00;100225.50;4862822;29;20049;-84
2021/12/07 07:37:21;;;;;;;18.38;11.38;;;;;;;1.53;100.00;100216.03;4870950;29;20086;-83
2021/12/07 07:39:47;;;;;;;21.17;12.48;;;;;;;1.46;100.00;100214.13;4874457;29;20100;-82
2021/12/07 07:42:14;;;;;;;19.40;11.98;;;;;;;1.35;100.00;100219.09;4873363;29;20063;-82
2021/12/07 07:44:40;;;;;;;23.20;12.95;;;;;;;1.35;100.00;100233.69;4870094;29;20048;-83
2021/12/07 07:47:07;;;;;;;19.02;11.55;;;;;;;1.36;100.00;100231.16;4890993;29;20048;-85
2021/12/07 07:49:34;;;;;;;20.33;12.73;;;;;;;1.35;100.00;100226.81;4874135;29;20778;-82
2021/12/07 07:52:01;;;;;;;23.17;13.57;;;;;;;1.36;100.00;100238.88;4870964;29;20057;-83
2021/12/07 07:54:28;;;;;;;24.30;11.90;;;;;;;1.38;100.00;100247.50;4887520;29;20057;-85
2021/12/07 07:56:55;;;;;;;23.55;13.73;;;;;;;1.40;100.00;100242.41;4869802;29;20056;-85
2021/12/07 07:59:22;;;;;;;23.85;13.23;;;;;;;1.44;100.00;100250.22;4873965;29;20040;-85
2021/12/07 08:01:48;;;;;;;17.98;12.05;;;;;;;1.45;100.00;100240.81;4877685;29;20057;-84
2021/12/07 08:04:15;;;;;;;20.35;11.90;;;;;;;1.43;100.00;100248.47;4870105;29;20052;-85
2021/12/07 08:06:41;;;;;;;18.40;10.82;;;;;;;1.38;100.00;100246.66;4877777;29;20052;-82
2021/12/07 08:09:08;;;;;;;22.45;12.32;;;;;;;1.38;100.00;100247.50;4859709;29;20057;-83
2021/12/07 08:11:35;;;;;;;19.48;12.00;;;;;;;1.41;100.00;100254.44;4880319;29;20556;-86
2021/12/07 08:14:02;;;;;;;24.40;11.48;;;;;;;1.36;100.00;100254.34;4878257;29;20052;-83
2021/12/07 08:16:30;;;;;;;17.17;11.15;;;;;;;1.37;100.00;100260.38;4891348;29;20052;-83
2021/12/07 08:19:01;;;;;;;21.10;12.93;;;;;;;1.41;100.00;100263.06;4891903;29;20049;-82
2021/12/07 08:21:28;;;;;;;15.00;9.93;;;;;;;1.47;100.00;100268.38;4860109;29;20053;-82
2021/12/07 08:23:55;;;;;;;19.92;11.52;;;;;;;1.51;100.00;100264.13;4878982;29;20116;-82
2021/12/07 08:26:25;;;;;;;18.70;10.50;;;;;;;1.56;100.00;100271.97;4877293;29;20119;-82
2021/12/07 08:28:55;;;;;;;19.77;11.88;;;;;;;1.59;100.00;100264.28;4878870;29;20064;-81
2021/12/07 08:31:23;;;;;;;16.23;10.85;;;;;;;1.63;100.00;100274.72;4865503;29;20134;-82
2021/12/07 08:33:50;;;;;;;16.70;10.13;;;;;;;1.69;100.00;100273.09;4872502;29;20064;-86
2021/12/07 08:36:18;;;;;;;16.15;10.05;;;;;;;1.75;100.00;100265.50;4901131;29;20404;-83
2021/12/07 08:38:46;;;;;;;15.05;10.45;;;;;;;1.82;100.00;100272.50;4873624;29;20123;-83
2021/12/07 08:41:14;;;;;;;18.20;9.93;;;;;;;1.88;100.00;100264.00;4901427;29;20044;-84
2021/12/07 08:43:41;;;;;;;18.13;10.00;;;;;;;1.93;100.00;100273.63;4863164;29;21176;-86
2021/12/07 08:46:14;;;;;;;16.63;9.90;;;;;;;2.00;100.00;100266.84;4863806;29;20056;-87
2021/12/07 08:48:42;;;;;;;15.40;8.68;;;;;;;2.10;100.00;100270.47;4891793;29;20053;-82
2021/12/07 08:51:11;;;;;;;14.05;9.43;;;;;;;2.20;100.00;100272.41;4878256;29;20488;-85
2021/12/07 08:53:46;;;;;;;15.98;8.85;;;;;;;2.31;100.00;100272.63;4859297;29;20146;-82
2021/12/07 09:01:41;;;;;;;12.38;9.07;;;;;;;2.55;99.32;100291.97;4892805;29;20095;-86
2021/12/07 09:04:10;;;;;;;15.90;9.50;;;;;;;2.57;99.21;100285.09;4878919;29;20540;-83
2021/12/07 09:06:37;;;;;;;13.85;9.20;;;;;;;2.61;99.48;100280.03;4862299;29;21157;-84
2021/12/07 09:09:06;;;;;;;10.10;7.05;;;;;;;2.64;99.09;100282.66;4861093;29;20537;-86
2021/12/07 09:11:33;;;;;;;14.02;9.90;;;;;;;2.67;99.06;100289.59;4878434;29;20049;-86
2021/12/07 09:13:59;;;;;;;13.45;8.55;;;;;;;2.69;98.58;100287.94;4876919;29;20124;-87
2021/12/07 09:16:26;;;;;;;13.30;7.72;;;;;;;2.69;97.79;100300.00;4877077;29;20120;-85
2021/12/07 09:18:53;;;;;;;10.65;7.38;;;;;;;2.68;98.22;100303.41;4876576;29;20051;-84
2021/12/07 09:21:22;;;;;;;10.20;7.70;;;;;;;2.69;98.07;100303.44;4878678;29;20041;-82
2021/12/07 09:23:51;;;;;;;11.43;7.70;;;;;;;2.70;97.39;100310.34;4861609;29;20860;-84
2021/12/07 09:26:17;;;;;;;8.30;7.47;;;;;;;2.70;97.67;100310.34;4877857;29;20424;-86
2021/12/07 09:28:46;;;;;;;12.82;8.13;;;;;;;2.76;97.45;100318.19;4877301;29;20052;-83
2021/12/07 09:31:13;;;;;;;12.85;8.07;;;;;;;2.75;97.47;100320.75;4870576;29;20149;-83
2021/12/07 09:33:41;;;;;;;12.30;9.00;;;;;;;2.72;96.78;100321.56;4893008;29;20056;-83
2021/12/07 09:36:10;;;;;;;10.80;7.60;;;;;;;2.69;97.30;100321.53;4892410;29;20116;-84
2021/12/07 09:38:38;;;;;;;13.38;8.82;;;;;;;2.68;97.30;100329.25;4864422;29;20064;-82
2021/12/07 09:41:08;;;;;;;16.08;10.13;;;;;;;2.61;97.67;100326.56;4866445;29;20058;-83
2021/12/07 09:43:36;;;;;;;12.05;9.00;;;;;;;2.59;97.78;100325.63;4849162;29;20060;-83
2021/12/07 09:46:05;;;;;;;12.13;8.30;;;;;;;2.63;97.82;100322.28;4879766;29;20104;-83
2021/12/07 09:48:35;;;;;;;12.05;9.77;;;;;;;2.70;98.19;100315.53;4878380;29;20048;-86
2021/12/07 09:51:05;;;;;;;13.05;9.20;;;;;;;2.79;97.73;100312.19;4866721;29;20069;-82
2021/12/07 09:53:32;;;;;;;13.85;8.20;;;;;;;2.91;97.51;100314.16;4880243;29;20050;-83
2021/12/07 09:56:01;;;;;;;14.05;9.38;;;;;;;2.99;96.89;100312.56;4869570;29;20132;-83
2021/12/07 09:58:28;;;;;;;11.82;8.10;;;;;;;3.08;97.03;100309.25;4862495;29;20048;-83
2021/12/07 10:00:55;;;;;;;11.48;8.60;;;;;;;3.11;96.32;100307.56;4861702;29;20053;-86
2021/12/07 10:03:24;;;;;;;10.00;7.55;;;;;;;3.17;96.45;100311.97;4862154;29;20051;-83
2021/12/07 10:05:51;;;;;;;9.30;7.43;;;;;;;3.23;96.21;100308.63;4878094;29;20060;-86
2021/12/07 10:08:19;;;;;;;11.27;8.23;;;;;;;3.18;95.56;100311.16;4875850;29;20055;-83
2021/12/07 10:10:55;;;;;;;11.40;8.18;;;;;;;3.16;95.92;100306.78;4878886;29;20165;-84
2021/12/07 10:13:27;;;;;;;9.80;7.50;;;;;;;3.10;96.01;100304.97;4876069;29;20545;-83
2021/12/07 10:15:54;;;;;;;11.20;8.35;;;;;;;3.12;96.44;100301.56;4889447;29;20061;-83
2021/12/07 10:18:29;;;;;;;10.60;8.52;;;;;;;3.19;96.71;100302.50;4876929;29;20408;-83
2021/12/07 10:20:59;;;;;;;13.80;9.00;;;;;;;3.25;95.96;100307.78;4891073;29;20526;-83
2021/12/07 10:23:44;;;;;;;12.63;8.63;;;;;;;3.24;95.80;100311.22;4893184;29;20052;-88
2021/12/07 10:26:16;;;;;;;11.48;8.15;;;;;;;3.23;95.84;100313.78;4864544;29;20053;-83
2021/12/07 10:28:56;;;;;;;11.55;7.50;;;;;;;3.17;95.33;100306.81;4876623;29;20044;-82
2021/12/07 10:31:44;;;;;;;10.48;7.60;;;;;;;3.18;96.13;100308.56;4889774;29;20063;-84
2021/12/07 10:34:28;;;;;;;11.02;7.80;;;;;;;3.13;95.95;100305.03;4883471;29;20083;-82
2021/12/07 10:37:09;;;;;;;;;;;;;;;3.09;96.21;100304.09;4877951;29;20055;-85
2021/12/07 10:39:49;;;;;;;8.80;7.22;;;;;;;3.05;96.74;100309.19;4863675;29;19923;-86
2021/12/07 10:42:30;;;;;;;11.40;8.20;;;;;;;3.05;96.79;100299.72;4877088;29;20049;-82
2021/12/07 10:45:04;;;;;;;10.07;8.25;;;;;;;3.08;97.20;100306.66;4866268;29;20055;-83
2021/12/07 10:47:30;;;;;;;11.73;8.75;;;;;;;3.07;97.12;100305.78;4860698;29;20154;-85
2021/12/07 10:50:06;;;;;;;12.00;7.47;;;;;;;3.12;96.99;100305.88;4877120;29;20076;-83
2021/12/07 10:52:42;;;;;;;9.65;7.47;;;;;;;3.23;97.19;100306.03;4876150;29;20057;-82
2021/12/07 10:55:23;;;;;;;13.07;8.25;;;;;;;3.25;96.55;100305.19;4877690;29;20067;-82
2021/12/07 10:57:59;;;;;;;10.07;7.63;;;;;;;3.33;96.51;100296.69;4861461;29;20112;-85
2021/12/07 11:00:33;;;;;;;10.13;6.93;;;;;;;3.42;96.05;100308.03;4861772;29;20044;-85
2021/12/07 11:03:05;;;;;;;10.18;7.30;;;;;;;3.49;95.46;100306.41;4866203;29;20413;-84
2021/12/07 11:05:46;;;;;;;13.05;8.05;;;;;;;3.57;95.34;100307.41;4884944;29;20064;-82
2021/12/07 11:08:15;;;;;;;11.40;7.93;;;;;;;3.64;95.18;100290.25;4860099;29;20211;-83
2021/12/07 11:10:48;;;;;;;10.38;7.57;;;;;;;3.72;95.09;100287.75;4862182;29;20048;-82
2021/12/07 11:13:34;;;;;;;10.82;7.60;;;;;;;3.68;94.01;100276.47;4859334;29;20053;-82
2021/12/07 11:16:10;;;;;;;11.38;7.63;;;;;;;3.68;94.51;100286.84;4878538;29;20513;-83
2021/12/07 11:18:41;;;;;;;7.95;7.15;;;;;;;3.71;94.13;100286.00;4888606;29;20049;-85
2021/12/07 11:21:11;;;;;;;9.02;7.22;;;;;;;3.81;94.22;100278.38;4893088;29;20124;-83
2021/12/07 11:23:44;;;;;;;11.05;7.45;;;;;;;3.87;93.60;100281.88;4871778;29;20052;-82
2021/12/07 11:31:56;;;;;;;12.05;8.13;;;;;;;3.78;94.22;100273.16;4893879;29;20048;-83
2021/12/07 11:34:39;;;;;;;9.77;7.25;;;;;;;3.79;93.81;100276.63;4879879;29;20044;-85
2021/12/07 11:37:13;;;;;;;9.43;7.18;;;;;;;3.90;94.34;100298.34;4887955;29;20397;-83
2021/12/07 11:39:49;;;;;;;10.40;8.13;;;;;;;4.16;93.63;100302.97;4877190;29;20067;-83
2021/12/07 11:42:27;;;;;;;10.07;6.50;;;;;;;4.40;92.96;100312.72;4870164;29;20477;-83
2021/12/07 11:45:06;;;;;;;10.60;7.57;;;;;;;4.58;91.65;100324.16;4878465;29;20518;-84
2021/12/07 11:47:59;;;;;;;10.68;7.47;;;;;;;4.62;90.73;100321.59;4862490;29;20067;-87
2021/12/07 11:50:38;;;;;;;9.25;7.10;;;;;;;4.58;90.80;100309.47;4866070;29;20493;-86
2021/12/07 11:53:21;;;;;;;10.35;7.45;;;;;;;4.50;90.98;100307.63;4880663;29;20084;-86
2021/12/07 11:55:54;;;;;;;11.90;7.93;;;;;;;4.39;91.58;100321.34;4891791;29;20049;-83
2021/12/07 11:58:21;;;;;;;11.45;8.35;;;;;;;4.33;92.03;100323.88;4875701;29;20096;-82
2021/12/07 12:00:54;;;;;;;11.88;8.00;;;;;;;4.29;91.76;100320.38;4892991;29;20104;-83
2021/12/07 12:03:23;;;;;;;14.48;8.88;;;;;;;4.20;91.74;100325.47;4877953;29;20404;-83
2021/12/07 12:05:52;;;;;;;14.00;8.77;;;;;;;4.17;92.55;100320.22;4878379;29;20083;-83
2021/12/07 12:08:20;;;;;;;14.30;9.90;;;;;;;4.12;92.57;100321.94;4878420;29;20984;-83
2021/12/07 12:11:12;;;;;;;11.82;8.00;;;;;;;4.09;92.90;100332.22;4894332;29;20053;-82
2021/12/07 12:14:21;;;;;;;20.77;10.02;;;;;;;3.97;92.98;100331.22;4863701;29;20056;-85
2021/12/07 12:17:11;;;;;;;13.80;9.13;;;;;;;3.92;93.68;100325.09;4873372;29;20108;-85
2021/12/07 12:19:50;;;;;;;16.70;9.07;;;;;;;3.93;94.08;100320.81;4874516;29;20675;-86
2021/12/07 12:23:10;;;;;;;17.88;9.55;;;;;;;3.91;93.46;100319.91;4875187;29;20052;-87
2021/12/07 12:25:38;;;;;;;18.63;9.98;;;;;;;3.85;93.65;100315.53;4858346;29;20052;-86
2021/12/07 12:28:05;;;;;;;18.52;9.95;;;;;;;3.81;93.84;100306.00;4859730;29;20060;-86
2021/12/07 12:30:36;;;;;;;22.73;9.82;;;;;;;3.76;94.20;100310.25;4865630;29;20103;-83
2021/12/07 12:33:13;;;;;;;17.23;11.40;;;;;;;3.75;94.18;100316.25;4887385;29;20237;-85
2021/12/07 12:35:50;;;;;;;18.45;11.95;;;;;;;3.77;94.27;100319.75;4863853;29;20063;-83
2021/12/07 12:38:29;;;;;;;21.23;11.43;;;;;;;3.73;94.65;100294.66;4895443;29;20171;-85
2021/12/07 12:41:09;;;;;;;15.65;9.15;;;;;;;3.72;95.19;100306.72;4890074;29;20045;-83
2021/12/07 12:43:53;;;;;;;18.58;10.73;;;;;;;3.67;95.13;100320.47;4872917;29;20833;-87
2021/12/07 12:46:29;;;;;;;16.00;9.98;;;;;;;3.55;95.71;100326.34;4870674;29;20090;-83
2021/12/07 12:49:04;;;;;;;16.52;9.68;;;;;;;3.52;96.23;100323.69;4864172;29;20063;-83
2021/12/07 12:51:50;;;;;;;17.85;10.82;;;;;;;3.50;96.47;100310.75;4886030;29;20155;-86
2021/12/07 12:54:18;;;;;;;20.40;11.40;;;;;;;3.52;96.81;100306.47;4880302;29;20064;-84
2021/12/07 12:56:46;;;;;;;23.02;10.82;;;;;;;3.51;96.86;100304.72;4858820;29;20075;-84
2021/12/07 12:59:13;;;;;;;21.33;11.73;;;;;;;3.50;97.08;100309.88;4864353;29;20063;-82